sensor_id;sensor_type;location;lat;lon;timestamp;P1;durP1;ratioP1;P2;durP2;ratioP2
5539;SDS011;2792;52.452;9.752;2023-11-21T00:00:56;20.20;;;10.87;;
5539;SDS011;2792;52.452;9.752;2023-11-21T00:03:23;22.43;;;10.30;;
5539;SDS011;2792;52.452;9.752;2023-11-21T00:05:53;33.90;;;11.70;;
5539;SDS011;2792;52.452;9.752;2023-11-21T00:08:19;23.37;;;11.10;;
5539;SDS011;2792;52.452;9.752;2023-11-21T00:10:46;25.77;;;11.13;;
5539;SDS011;2792;52.452;9.752;2023-11-21T00:13:13;21.40;;;11.03;;
5539;SDS011;2792;52.452;9.752;2023-11-21T00:15:40;22.97;;;11.67;;
5539;SDS011;2792;52.452;9.752;2023-11-21T00:18:07;33.70;;;13.30;;
5539;SDS011;2792;52.452;9.752;2023-11-21T00:20:35;27.83;;;11.17;;
5539;SDS011;2792;52.452;9.752;2023-11-21T00:23:01;24.00;;;12.13;;
5539;SDS011;2792;52.452;9.752;2023-11-21T00:25:28;21.93;;;11.20;;
5539;SDS011;2792;52.452;9.752;2023-11-21T00:27:56;23.87;;;11.30;;
5539;SDS011;2792;52.452;9.752;2023-11-21T00:30:22;23.10;;;12.03;;
5539;SDS011;2792;52.452;9.752;2023-11-21T00:32:49;26.63;;;12.53;;
5539;SDS011;2792;52.452;9.752;2023-11-21T00:35:17;24.03;;;11.73;;
5539;SDS011;2792;52.452;9.752;2023-11-21T00:37:43;26.63;;;13.43;;
5539;SDS011;2792;52.452;9.752;2023-11-21T00:40:10;19.47;;;11.63;;
5539;SDS011;2792;52.452;9.752;2023-11-21T00:42:37;24.60;;;11.43;;
5539;SDS011;2792;52.452;9.752;2023-11-21T00:45:04;24.27;;;11.77;;
5539;SDS011;2792;52.452;9.752;2023-11-21T00:47:32;24.73;;;11.87;;
5539;SDS011;2792;52.452;9.752;2023-11-21T00:49:58;21.07;;;11.70;;
5539;SDS011;2792;52.452;9.752;2023-11-21T00:52:26;25.30;;;12.07;;
5539;SDS011;2792;52.452;9.752;2023-11-21T00:54:52;26.80;;;11.87;;
5539;SDS011;2792;52.452;9.752;2023-11-21T00:57:19;23.83;;;10.60;;
5539;SDS011;2792;52.452;9.752;2023-11-21T00:59:45;21.50;;;12.07;;
5539;SDS011;2792;52.452;9.752;2023-11-21T01:02:12;24.17;;;11.60;;
5539;SDS011;2792;52.452;9.752;2023-11-21T01:04:38;24.60;;;11.97;;
5539;SDS011;2792;52.452;9.752;2023-11-21T01:07:05;30.47;;;11.63;;
5539;SDS011;2792;52.452;9.752;2023-11-21T01:09:33;21.73;;;11.73;;
5539;SDS011;2792;52.452;9.752;2023-11-21T01:12:00;31.57;;;12.80;;
5539;SDS011;2792;52.452;9.752;2023-11-21T01:14:26;26.27;;;11.57;;
5539;SDS011;2792;52.452;9.752;2023-11-21T01:16:53;25.67;;;12.50;;
5539;SDS011;2792;52.452;9.752;2023-11-21T01:19:20;32.53;;;12.37;;
5539;SDS011;2792;52.452;9.752;2023-11-21T01:21:47;26.93;;;12.87;;
5539;SDS011;2792;52.452;9.752;2023-11-21T01:24:13;19.20;;;11.50;;
5539;SDS011;2792;52.452;9.752;2023-11-21T01:26:41;23.60;;;12.20;;
5539;SDS011;2792;52.452;9.752;2023-11-21T01:29:08;30.60;;;12.47;;
5539;SDS011;2792;52.452;9.752;2023-11-21T01:31:35;30.60;;;13.50;;
5539;SDS011;2792;52.452;9.752;2023-11-21T01:34:01;29.00;;;12.13;;
5539;SDS011;2792;52.452;9.752;2023-11-21T01:36:29;30.10;;;14.10;;
5539;SDS011;2792;52.452;9.752;2023-11-21T01:38:57;38.10;;;13.00;;
5539;SDS011;2792;52.452;9.752;2023-11-21T01:41:24;26.80;;;12.37;;
5539;SDS011;2792;52.452;9.752;2023-11-21T01:43:53;25.23;;;12.77;;
5539;SDS011;2792;52.452;9.752;2023-11-21T01:46:19;31.90;;;13.87;;
5539;SDS011;2792;52.452;9.752;2023-11-21T01:48:46;29.70;;;12.43;;
5539;SDS011;2792;52.452;9.752;2023-11-21T01:51:13;32.80;;;13.63;;
5539;SDS011;2792;52.452;9.752;2023-11-21T01:53:39;34.67;;;13.50;;
5539;SDS011;2792;52.452;9.752;2023-11-21T01:56:07;31.83;;;13.93;;
5539;SDS011;2792;52.452;9.752;2023-11-21T01:58:34;37.50;;;14.60;;
5539;SDS011;2792;52.452;9.752;2023-11-21T02:01:02;33.43;;;13.80;;
5539;SDS011;2792;52.452;9.752;2023-11-21T02:03:30;35.77;;;15.27;;
5539;SDS011;2792;52.452;9.752;2023-11-21T02:05:56;29.53;;;14.20;;
5539;SDS011;2792;52.452;9.752;2023-11-21T02:08:23;31.63;;;14.90;;
5539;SDS011;2792;52.452;9.752;2023-11-21T02:10:50;32.77;;;15.70;;
5539;SDS011;2792;52.452;9.752;2023-11-21T02:13:16;31.93;;;15.93;;
5539;SDS011;2792;52.452;9.752;2023-11-21T02:15:43;36.77;;;15.67;;
5539;SDS011;2792;52.452;9.752;2023-11-21T02:18:11;30.27;;;14.27;;
5539;SDS011;2792;52.452;9.752;2023-11-21T02:20:38;41.23;;;14.07;;
5539;SDS011;2792;52.452;9.752;2023-11-21T02:23:08;35.20;;;16.17;;
5539;SDS011;2792;52.452;9.752;2023-11-21T02:25:34;40.10;;;15.47;;
5539;SDS011;2792;52.452;9.752;2023-11-21T02:28:02;40.63;;;15.53;;
5539;SDS011;2792;52.452;9.752;2023-11-21T02:30:29;37.10;;;15.47;;
5539;SDS011;2792;52.452;9.752;2023-11-21T02:32:57;38.77;;;15.83;;
5539;SDS011;2792;52.452;9.752;2023-11-21T02:35:23;37.53;;;14.63;;
5539;SDS011;2792;52.452;9.752;2023-11-21T02:37:50;35.33;;;15.20;;
5539;SDS011;2792;52.452;9.752;2023-11-21T02:40:18;38.40;;;15.33;;
5539;SDS011;2792;52.452;9.752;2023-11-21T02:42:46;36.43;;;15.50;;
5539;SDS011;2792;52.452;9.752;2023-11-21T02:45:13;44.00;;;16.37;;
5539;SDS011;2792;52.452;9.752;2023-11-21T02:47:41;46.30;;;15.90;;
5539;SDS011;2792;52.452;9.752;2023-11-21T02:50:08;38.57;;;15.97;;
5539;SDS011;2792;52.452;9.752;2023-11-21T02:52:35;46.00;;;17.00;;
5539;SDS011;2792;52.452;9.752;2023-11-21T02:55:01;34.57;;;15.00;;
5539;SDS011;2792;52.452;9.752;2023-11-21T02:57:29;51.20;;;19.60;;
5539;SDS011;2792;52.452;9.752;2023-11-21T02:59:56;41.47;;;17.00;;
5539;SDS011;2792;52.452;9.752;2023-11-21T03:02:22;43.93;;;17.80;;
5539;SDS011;2792;52.452;9.752;2023-11-21T03:04:49;41.43;;;18.10;;
5539;SDS011;2792;52.452;9.752;2023-11-21T03:07:15;51.33;;;17.80;;
5539;SDS011;2792;52.452;9.752;2023-11-21T03:09:44;45.17;;;19.23;;
5539;SDS011;2792;52.452;9.752;2023-11-21T03:12:10;47.17;;;18.57;;
5539;SDS011;2792;52.452;9.752;2023-11-21T03:14:39;65.30;;;20.17;;
5539;SDS011;2792;52.452;9.752;2023-11-21T03:17:06;53.73;;;20.63;;
5539;SDS011;2792;52.452;9.752;2023-11-21T03:19:32;47.00;;;19.90;;
5539;SDS011;2792;52.452;9.752;2023-11-21T03:21:59;43.50;;;19.90;;
5539;SDS011;2792;52.452;9.752;2023-11-21T03:24:25;43.13;;;19.00;;
5539;SDS011;2792;52.452;9.752;2023-11-21T03:26:52;46.73;;;19.73;;
5539;SDS011;2792;52.452;9.752;2023-11-21T03:29:19;44.20;;;18.83;;
5539;SDS011;2792;52.452;9.752;2023-11-21T03:31:46;44.00;;;19.07;;
5539;SDS011;2792;52.452;9.752;2023-11-21T03:34:15;45.07;;;20.00;;
5539;SDS011;2792;52.452;9.752;2023-11-21T03:36:43;46.70;;;19.83;;
5539;SDS011;2792;52.452;9.752;2023-11-21T03:39:11;52.20;;;20.10;;
5539;SDS011;2792;52.452;9.752;2023-11-21T03:41:38;53.80;;;19.90;;
5539;SDS011;2792;52.452;9.752;2023-11-21T03:44:04;45.20;;;19.47;;
5539;SDS011;2792;52.452;9.752;2023-11-21T03:46:31;52.17;;;21.20;;
5539;SDS011;2792;52.452;9.752;2023-11-21T03:48:59;63.23;;;20.00;;
5539;SDS011;2792;52.452;9.752;2023-11-21T03:51:25;57.00;;;20.57;;
5539;SDS011;2792;52.452;9.752;2023-11-21T03:53:52;55.73;;;19.63;;
5539;SDS011;2792;52.452;9.752;2023-11-21T03:56:18;49.33;;;20.17;;
5539;SDS011;2792;52.452;9.752;2023-11-21T03:58:46;56.97;;;20.37;;
5539;SDS011;2792;52.452;9.752;2023-11-21T04:01:18;58.17;;;21.13;;
5539;SDS011;2792;52.452;9.752;2023-11-21T04:03:46;64.43;;;22.17;;
5539;SDS011;2792;52.452;9.752;2023-11-21T04:06:14;62.33;;;20.97;;
5539;SDS011;2792;52.452;9.752;2023-11-21T04:08:42;61.83;;;21.70;;
5539;SDS011;2792;52.452;9.752;2023-11-21T04:11:09;61.70;;;21.77;;
5539;SDS011;2792;52.452;9.752;2023-11-21T04:13:36;65.60;;;24.10;;
5539;SDS011;2792;52.452;9.752;2023-11-21T04:16:03;53.80;;;21.90;;
5539;SDS011;2792;52.452;9.752;2023-11-21T04:18:31;65.87;;;22.20;;
5539;SDS011;2792;52.452;9.752;2023-11-21T04:20:57;57.57;;;20.20;;
5539;SDS011;2792;52.452;9.752;2023-11-21T04:23:25;60.43;;;21.47;;
5539;SDS011;2792;52.452;9.752;2023-11-21T04:25:53;58.00;;;21.30;;
5539;SDS011;2792;52.452;9.752;2023-11-21T04:28:22;59.07;;;21.40;;
5539;SDS011;2792;52.452;9.752;2023-11-21T04:30:49;71.23;;;22.77;;
5539;SDS011;2792;52.452;9.752;2023-11-21T04:33:15;62.17;;;20.47;;
5539;SDS011;2792;52.452;9.752;2023-11-21T04:35:42;60.97;;;21.67;;
5539;SDS011;2792;52.452;9.752;2023-11-21T04:38:08;63.93;;;22.40;;
5539;SDS011;2792;52.452;9.752;2023-11-21T04:40:36;55.50;;;21.07;;
5539;SDS011;2792;52.452;9.752;2023-11-21T04:43:03;60.67;;;22.50;;
5539;SDS011;2792;52.452;9.752;2023-11-21T04:45:30;60.60;;;22.83;;
5539;SDS011;2792;52.452;9.752;2023-11-21T04:47:56;63.20;;;22.63;;
5539;SDS011;2792;52.452;9.752;2023-11-21T04:50:23;60.63;;;23.53;;
5539;SDS011;2792;52.452;9.752;2023-11-21T04:52:51;59.23;;;22.90;;
5539;SDS011;2792;52.452;9.752;2023-11-21T04:55:17;59.70;;;21.80;;
5539;SDS011;2792;52.452;9.752;2023-11-21T04:57:46;57.97;;;22.77;;
5539;SDS011;2792;52.452;9.752;2023-11-21T05:00:12;61.40;;;22.80;;
5539;SDS011;2792;52.452;9.752;2023-11-21T05:02:41;59.83;;;22.13;;
5539;SDS011;2792;52.452;9.752;2023-11-21T05:05:09;68.27;;;23.03;;
5539;SDS011;2792;52.452;9.752;2023-11-21T05:07:36;63.50;;;22.53;;
5539;SDS011;2792;52.452;9.752;2023-11-21T05:10:03;62.60;;;21.80;;
5539;SDS011;2792;52.452;9.752;2023-11-21T05:12:33;54.60;;;20.50;;
5539;SDS011;2792;52.452;9.752;2023-11-21T05:15:02;48.97;;;18.23;;
5539;SDS011;2792;52.452;9.752;2023-11-21T05:17:32;48.93;;;18.30;;
5539;SDS011;2792;52.452;9.752;2023-11-21T05:19:59;48.23;;;17.97;;
5539;SDS011;2792;52.452;9.752;2023-11-21T05:22:29;53.37;;;20.40;;
5539;SDS011;2792;52.452;9.752;2023-11-21T05:24:55;42.77;;;18.30;;
5539;SDS011;2792;52.452;9.752;2023-11-21T05:27:21;47.73;;;17.30;;
5539;SDS011;2792;52.452;9.752;2023-11-21T05:29:48;45.10;;;17.63;;
5539;SDS011;2792;52.452;9.752;2023-11-21T05:32:16;39.57;;;15.40;;
5539;SDS011;2792;52.452;9.752;2023-11-21T05:34:42;45.27;;;15.73;;
5539;SDS011;2792;52.452;9.752;2023-11-21T05:37:09;43.33;;;15.87;;
5539;SDS011;2792;52.452;9.752;2023-11-21T05:39:35;38.70;;;14.37;;
5539;SDS011;2792;52.452;9.752;2023-11-21T05:42:02;42.10;;;15.10;;
5539;SDS011;2792;52.452;9.752;2023-11-21T05:44:29;32.80;;;12.93;;
5539;SDS011;2792;52.452;9.752;2023-11-21T05:46:56;30.37;;;12.10;;
5539;SDS011;2792;52.452;9.752;2023-11-21T05:49:25;34.07;;;14.07;;
5539;SDS011;2792;52.452;9.752;2023-11-21T05:51:53;32.87;;;13.10;;
5539;SDS011;2792;52.452;9.752;2023-11-21T05:54:20;35.27;;;12.87;;
5539;SDS011;2792;52.452;9.752;2023-11-21T05:56:47;36.40;;;12.87;;
5539;SDS011;2792;52.452;9.752;2023-11-21T05:59:14;36.90;;;13.27;;
5539;SDS011;2792;52.452;9.752;2023-11-21T06:01:41;38.03;;;13.40;;
5539;SDS011;2792;52.452;9.752;2023-11-21T06:04:07;32.23;;;13.67;;
5539;SDS011;2792;52.452;9.752;2023-11-21T06:06:36;28.83;;;13.03;;
5539;SDS011;2792;52.452;9.752;2023-11-21T06:09:02;28.33;;;12.03;;
5539;SDS011;2792;52.452;9.752;2023-11-21T06:11:30;35.73;;;12.90;;
5539;SDS011;2792;52.452;9.752;2023-11-21T06:13:57;33.47;;;13.10;;
5539;SDS011;2792;52.452;9.752;2023-11-21T06:16:23;26.87;;;11.37;;
5539;SDS011;2792;52.452;9.752;2023-11-21T06:18:50;30.87;;;10.97;;
5539;SDS011;2792;52.452;9.752;2023-11-21T06:21:16;22.60;;;10.33;;
5539;SDS011;2792;52.452;9.752;2023-11-21T06:23:44;14.20;;;7.17;;
5539;SDS011;2792;52.452;9.752;2023-11-21T06:26:11;10.70;;;5.90;;
5539;SDS011;2792;52.452;9.752;2023-11-21T06:28:38;7.70;;;4.40;;
5539;SDS011;2792;52.452;9.752;2023-11-21T06:31:05;4.93;;;3.30;;
5539;SDS011;2792;52.452;9.752;2023-11-21T06:33:31;5.60;;;3.43;;
5539;SDS011;2792;52.452;9.752;2023-11-21T06:35:58;6.90;;;3.70;;
5539;SDS011;2792;52.452;9.752;2023-11-21T06:38:25;5.20;;;3.90;;
5539;SDS011;2792;52.452;9.752;2023-11-21T06:40:54;7.07;;;4.60;;
5539;SDS011;2792;52.452;9.752;2023-11-21T06:43:20;7.63;;;4.60;;
5539;SDS011;2792;52.452;9.752;2023-11-21T06:45:47;9.07;;;4.50;;
5539;SDS011;2792;52.452;9.752;2023-11-21T06:48:14;9.10;;;4.73;;
5539;SDS011;2792;52.452;9.752;2023-11-21T06:50:41;8.60;;;5.03;;
5539;SDS011;2792;52.452;9.752;2023-11-21T06:53:07;6.17;;;5.03;;
5539;SDS011;2792;52.452;9.752;2023-11-21T06:55:34;11.60;;;4.97;;
5539;SDS011;2792;52.452;9.752;2023-11-21T06:58:02;11.00;;;5.70;;
5539;SDS011;2792;52.452;9.752;2023-11-21T07:00:30;9.57;;;5.40;;
5539;SDS011;2792;52.452;9.752;2023-11-21T07:02:56;10.10;;;6.10;;
5539;SDS011;2792;52.452;9.752;2023-11-21T07:05:23;12.23;;;5.60;;
5539;SDS011;2792;52.452;9.752;2023-11-21T07:07:49;7.70;;;5.17;;
5539;SDS011;2792;52.452;9.752;2023-11-21T07:10:19;7.70;;;5.33;;
5539;SDS011;2792;52.452;9.752;2023-11-21T07:12:45;6.80;;;4.77;;
5539;SDS011;2792;52.452;9.752;2023-11-21T07:15:13;8.70;;;5.73;;
5539;SDS011;2792;52.452;9.752;2023-11-21T07:17:40;8.77;;;5.87;;
5539;SDS011;2792;52.452;9.752;2023-11-21T07:20:07;9.23;;;5.77;;
5539;SDS011;2792;52.452;9.752;2023-11-21T07:22:34;7.23;;;4.80;;
5539;SDS011;2792;52.452;9.752;2023-11-21T07:25:00;9.80;;;6.20;;
5539;SDS011;2792;52.452;9.752;2023-11-21T07:27:27;7.93;;;5.67;;
5539;SDS011;2792;52.452;9.752;2023-11-21T07:29:53;9.63;;;6.20;;
5539;SDS011;2792;52.452;9.752;2023-11-21T07:32:21;11.00;;;6.73;;
5539;SDS011;2792;52.452;9.752;2023-11-21T07:34:48;13.07;;;7.73;;
5539;SDS011;2792;52.452;9.752;2023-11-21T07:37:14;10.23;;;7.10;;
5539;SDS011;2792;52.452;9.752;2023-11-21T07:39:41;11.63;;;6.90;;
5539;SDS011;2792;52.452;9.752;2023-11-21T07:42:09;12.57;;;7.97;;
5539;SDS011;2792;52.452;9.752;2023-11-21T07:44:36;13.17;;;7.70;;
5539;SDS011;2792;52.452;9.752;2023-11-21T07:47:02;13.30;;;8.13;;
5539;SDS011;2792;52.452;9.752;2023-11-21T07:49:31;12.20;;;7.93;;
5539;SDS011;2792;52.452;9.752;2023-11-21T07:51:57;12.70;;;8.30;;
5539;SDS011;2792;52.452;9.752;2023-11-21T07:54:24;15.00;;;7.97;;
5539;SDS011;2792;52.452;9.752;2023-11-21T07:56:50;17.30;;;9.13;;
5539;SDS011;2792;52.452;9.752;2023-11-21T07:59:17;13.70;;;8.90;;
5539;SDS011;2792;52.452;9.752;2023-11-21T08:01:43;17.40;;;9.60;;
5539;SDS011;2792;52.452;9.752;2023-11-21T08:04:11;14.77;;;10.17;;
5539;SDS011;2792;52.452;9.752;2023-11-21T08:06:39;17.67;;;9.23;;
5539;SDS011;2792;52.452;9.752;2023-11-21T08:09:06;16.40;;;9.00;;
5539;SDS011;2792;52.452;9.752;2023-11-21T08:11:33;16.70;;;9.80;;
5539;SDS011;2792;52.452;9.752;2023-11-21T08:14:00;16.53;;;9.70;;
5539;SDS011;2792;52.452;9.752;2023-11-21T08:16:26;13.03;;;8.87;;
5539;SDS011;2792;52.452;9.752;2023-11-21T08:18:53;14.60;;;8.90;;
5539;SDS011;2792;52.452;9.752;2023-11-21T08:21:20;15.50;;;10.00;;
5539;SDS011;2792;52.452;9.752;2023-11-21T08:23:50;15.80;;;9.97;;
5539;SDS011;2792;52.452;9.752;2023-11-21T08:26:19;17.13;;;9.27;;
5539;SDS011;2792;52.452;9.752;2023-11-21T08:28:45;17.37;;;9.03;;
5539;SDS011;2792;52.452;9.752;2023-11-21T08:31:13;15.60;;;10.03;;
5539;SDS011;2792;52.452;9.752;2023-11-21T08:33:39;13.47;;;8.73;;
5539;SDS011;2792;52.452;9.752;2023-11-21T08:36:06;11.70;;;8.50;;
5539;SDS011;2792;52.452;9.752;2023-11-21T08:38:34;15.43;;;8.80;;
5539;SDS011;2792;52.452;9.752;2023-11-21T08:41:04;13.63;;;8.53;;
5539;SDS011;2792;52.452;9.752;2023-11-21T08:43:32;12.27;;;7.97;;
5539;SDS011;2792;52.452;9.752;2023-11-21T08:45:59;14.00;;;8.90;;
5539;SDS011;2792;52.452;9.752;2023-11-21T08:48:26;10.80;;;7.40;;
5539;SDS011;2792;52.452;9.752;2023-11-21T08:50:54;13.80;;;8.60;;
5539;SDS011;2792;52.452;9.752;2023-11-21T08:53:21;13.73;;;8.30;;
5539;SDS011;2792;52.452;9.752;2023-11-21T08:55:48;12.70;;;8.50;;
5539;SDS011;2792;52.452;9.752;2023-11-21T08:58:16;13.70;;;8.20;;
5539;SDS011;2792;52.452;9.752;2023-11-21T09:00:42;12.40;;;7.70;;
5539;SDS011;2792;52.452;9.752;2023-11-21T09:03:09;9.70;;;7.10;;
5539;SDS011;2792;52.452;9.752;2023-11-21T09:05:37;10.73;;;8.17;;
5539;SDS011;2792;52.452;9.752;2023-11-21T09:08:04;11.37;;;7.10;;
5539;SDS011;2792;52.452;9.752;2023-11-21T09:10:31;12.33;;;8.13;;
5539;SDS011;2792;52.452;9.752;2023-11-21T09:13:00;11.67;;;7.20;;
5539;SDS011;2792;52.452;9.752;2023-11-21T09:15:28;10.33;;;7.30;;
5539;SDS011;2792;52.452;9.752;2023-11-21T09:17:55;11.40;;;7.70;;
5539;SDS011;2792;52.452;9.752;2023-11-21T09:20:21;12.77;;;6.63;;
5539;SDS011;2792;52.452;9.752;2023-11-21T09:22:48;11.30;;;7.67;;
5539;SDS011;2792;52.452;9.752;2023-11-21T09:25:15;11.83;;;7.60;;
5539;SDS011;2792;52.452;9.752;2023-11-21T09:27:42;10.87;;;7.20;;
5539;SDS011;2792;52.452;9.752;2023-11-21T09:30:08;10.97;;;7.60;;
5539;SDS011;2792;52.452;9.752;2023-11-21T09:32:37;10.90;;;7.63;;
5539;SDS011;2792;52.452;9.752;2023-11-21T09:35:05;9.90;;;6.63;;
5539;SDS011;2792;52.452;9.752;2023-11-21T09:37:33;11.30;;;6.83;;
5539;SDS011;2792;52.452;9.752;2023-11-21T09:40:01;8.30;;;6.27;;
5539;SDS011;2792;52.452;9.752;2023-11-21T09:42:29;7.97;;;6.37;;
5539;SDS011;2792;52.452;9.752;2023-11-21T09:44:58;10.17;;;5.90;;
5539;SDS011;2792;52.452;9.752;2023-11-21T09:47:29;6.70;;;5.17;;
5539;SDS011;2792;52.452;9.752;2023-11-21T09:49:58;8.30;;;5.63;;
5539;SDS011;2792;52.452;9.752;2023-11-21T09:52:28;8.07;;;5.73;;
5539;SDS011;2792;52.452;9.752;2023-11-21T09:54:55;6.77;;;5.50;;
5539;SDS011;2792;52.452;9.752;2023-11-21T09:57:23;7.40;;;5.60;;
5539;SDS011;2792;52.452;9.752;2023-11-21T09:59:51;7.13;;;5.10;;
5539;SDS011;2792;52.452;9.752;2023-11-21T10:02:19;8.67;;;5.70;;
5539;SDS011;2792;52.452;9.752;2023-11-21T10:04:46;8.03;;;5.43;;
5539;SDS011;2792;52.452;9.752;2023-11-21T10:07:15;7.80;;;5.43;;
5539;SDS011;2792;52.452;9.752;2023-11-21T10:09:42;7.37;;;4.77;;
5539;SDS011;2792;52.452;9.752;2023-11-21T10:12:09;8.57;;;5.20;;
5539;SDS011;2792;52.452;9.752;2023-11-21T10:14:36;7.13;;;4.93;;
5539;SDS011;2792;52.452;9.752;2023-11-21T10:17:03;11.70;;;5.43;;
5539;SDS011;2792;52.452;9.752;2023-11-21T10:19:30;6.60;;;5.43;;
5539;SDS011;2792;52.452;9.752;2023-11-21T10:21:57;6.50;;;5.00;;
5539;SDS011;2792;52.452;9.752;2023-11-21T10:24:26;5.57;;;4.30;;
5539;SDS011;2792;52.452;9.752;2023-11-21T10:26:53;6.47;;;5.03;;
5539;SDS011;2792;52.452;9.752;2023-11-21T10:29:19;9.13;;;4.70;;
5539;SDS011;2792;52.452;9.752;2023-11-21T10:31:48;6.17;;;4.73;;
5539;SDS011;2792;52.452;9.752;2023-11-21T10:34:15;5.07;;;4.57;;
5539;SDS011;2792;52.452;9.752;2023-11-21T10:36:43;6.43;;;5.00;;
5539;SDS011;2792;52.452;9.752;2023-11-21T10:39:13;6.00;;;5.00;;
5539;SDS011;2792;52.452;9.752;2023-11-21T10:41:44;5.63;;;4.67;;
5539;SDS011;2792;52.452;9.752;2023-11-21T10:44:12;6.37;;;4.63;;
5539;SDS011;2792;52.452;9.752;2023-11-21T10:46:45;6.73;;;4.77;;
5539;SDS011;2792;52.452;9.752;2023-11-21T10:49:15;4.80;;;4.30;;
5539;SDS011;2792;52.452;9.752;2023-11-21T10:51:43;6.67;;;4.80;;
5539;SDS011;2792;52.452;9.752;2023-11-21T10:54:09;6.43;;;4.40;;
5539;SDS011;2792;52.452;9.752;2023-11-21T10:56:37;5.43;;;4.57;;
5539;SDS011;2792;52.452;9.752;2023-11-21T10:59:07;5.30;;;3.80;;
5539;SDS011;2792;52.452;9.752;2023-11-21T11:01:39;17.90;;;4.43;;
5539;SDS011;2792;52.452;9.752;2023-11-21T11:04:08;6.67;;;4.90;;
5539;SDS011;2792;52.452;9.752;2023-11-21T11:06:39;6.07;;;4.57;;
5539;SDS011;2792;52.452;9.752;2023-11-21T11:09:07;5.43;;;4.40;;
5539;SDS011;2792;52.452;9.752;2023-11-21T11:11:34;6.17;;;4.57;;
5539;SDS011;2792;52.452;9.752;2023-11-21T11:14:04;5.87;;;4.07;;
5539;SDS011;2792;52.452;9.752;2023-11-21T11:16:32;4.67;;;4.20;;
5539;SDS011;2792;52.452;9.752;2023-11-21T11:18:59;5.10;;;4.07;;
5539;SDS011;2792;52.452;9.752;2023-11-21T11:21:27;5.03;;;4.20;;
5539;SDS011;2792;52.452;9.752;2023-11-21T11:24:04;4.40;;;3.83;;
5539;SDS011;2792;52.452;9.752;2023-11-21T11:26:39;5.20;;;3.97;;
5539;SDS011;2792;52.452;9.752;2023-11-21T11:29:18;6.17;;;4.50;;
5539;SDS011;2792;52.452;9.752;2023-11-21T11:31:54;6.50;;;3.77;;
5539;SDS011;2792;52.452;9.752;2023-11-21T11:34:30;8.60;;;4.80;;
5539;SDS011;2792;52.452;9.752;2023-11-21T11:37:00;5.40;;;4.67;;
5539;SDS011;2792;52.452;9.752;2023-11-21T11:39:29;4.70;;;4.17;;
5539;SDS011;2792;52.452;9.752;2023-11-21T11:41:56;5.80;;;3.93;;
5539;SDS011;2792;52.452;9.752;2023-11-21T11:47:19;4.30;;;3.63;;
5539;SDS011;2792;52.452;9.752;2023-11-21T11:50:00;5.70;;;4.20;;
5539;SDS011;2792;52.452;9.752;2023-11-21T11:52:32;5.03;;;3.70;;
5539;SDS011;2792;52.452;9.752;2023-11-21T11:55:02;5.37;;;4.10;;
5539;SDS011;2792;52.452;9.752;2023-11-21T11:57:29;3.87;;;3.30;;
5539;SDS011;2792;52.452;9.752;2023-11-21T12:00:10;5.67;;;3.53;;
5539;SDS011;2792;52.452;9.752;2023-11-21T12:02:42;4.80;;;4.03;;
5539;SDS011;2792;52.452;9.752;2023-11-21T12:05:11;5.77;;;3.43;;
5539;SDS011;2792;52.452;9.752;2023-11-21T12:07:49;4.30;;;3.80;;
5539;SDS011;2792;52.452;9.752;2023-11-21T12:10:18;4.87;;;3.70;;
5539;SDS011;2792;52.452;9.752;2023-11-21T12:12:45;5.30;;;4.40;;
5539;SDS011;2792;52.452;9.752;2023-11-21T12:15:13;6.83;;;4.10;;
5539;SDS011;2792;52.452;9.752;2023-11-21T12:17:40;5.73;;;4.57;;
5539;SDS011;2792;52.452;9.752;2023-11-21T12:20:09;6.47;;;4.10;;
5539;SDS011;2792;52.452;9.752;2023-11-21T12:22:43;8.33;;;4.50;;
5539;SDS011;2792;52.452;9.752;2023-11-21T12:25:12;3.93;;;3.53;;
5539;SDS011;2792;52.452;9.752;2023-11-21T12:27:41;5.40;;;4.60;;
5539;SDS011;2792;52.452;9.752;2023-11-21T12:30:09;4.90;;;4.30;;
5539;SDS011;2792;52.452;9.752;2023-11-21T12:32:38;5.47;;;4.53;;
5539;SDS011;2792;52.452;9.752;2023-11-21T12:35:08;6.70;;;3.70;;
5539;SDS011;2792;52.452;9.752;2023-11-21T12:37:35;4.63;;;4.10;;
5539;SDS011;2792;52.452;9.752;2023-11-21T12:40:03;9.70;;;5.50;;
5539;SDS011;2792;52.452;9.752;2023-11-21T12:42:30;5.47;;;4.50;;
5539;SDS011;2792;52.452;9.752;2023-11-21T12:47:45;7.30;;;4.30;;
5539;SDS011;2792;52.452;9.752;2023-11-21T12:50:13;4.90;;;4.40;;
5539;SDS011;2792;52.452;9.752;2023-11-21T12:52:43;7.27;;;5.17;;
5539;SDS011;2792;52.452;9.752;2023-11-21T12:55:13;7.00;;;4.40;;
5539;SDS011;2792;52.452;9.752;2023-11-21T12:57:42;5.03;;;3.87;;
5539;SDS011;2792;52.452;9.752;2023-11-21T13:00:09;7.10;;;4.70;;
5539;SDS011;2792;52.452;9.752;2023-11-21T13:02:40;6.90;;;4.47;;
5539;SDS011;2792;52.452;9.752;2023-11-21T13:05:08;6.13;;;4.37;;
5539;SDS011;2792;52.452;9.752;2023-11-21T13:07:44;4.00;;;3.60;;
5539;SDS011;2792;52.452;9.752;2023-11-21T13:10:12;6.87;;;3.60;;
5539;SDS011;2792;52.452;9.752;2023-11-21T13:12:42;5.60;;;4.53;;
5539;SDS011;2792;52.452;9.752;2023-11-21T13:15:09;5.27;;;4.27;;
5539;SDS011;2792;52.452;9.752;2023-11-21T13:17:36;5.20;;;4.00;;
5539;SDS011;2792;52.452;9.752;2023-11-21T13:20:03;3.93;;;3.53;;
5539;SDS011;2792;52.452;9.752;2023-11-21T13:22:34;6.07;;;4.03;;
5539;SDS011;2792;52.452;9.752;2023-11-21T13:25:02;4.27;;;3.53;;
5539;SDS011;2792;52.452;9.752;2023-11-21T13:27:32;4.90;;;4.03;;
5539;SDS011;2792;52.452;9.752;2023-11-21T13:29:59;5.90;;;3.50;;
5539;SDS011;2792;52.452;9.752;2023-11-21T13:32:26;5.93;;;3.60;;
5539;SDS011;2792;52.452;9.752;2023-11-21T13:34:52;3.50;;;2.70;;
5539;SDS011;2792;52.452;9.752;2023-11-21T13:37:19;3.50;;;3.20;;
5539;SDS011;2792;52.452;9.752;2023-11-21T13:39:46;5.87;;;3.30;;
5539;SDS011;2792;52.452;9.752;2023-11-21T13:42:16;4.27;;;3.80;;
5539;SDS011;2792;52.452;9.752;2023-11-21T13:44:42;3.70;;;3.40;;
5539;SDS011;2792;52.452;9.752;2023-11-21T13:47:13;3.83;;;3.33;;
5539;SDS011;2792;52.452;9.752;2023-11-21T13:49:39;6.27;;;3.90;;
5539;SDS011;2792;52.452;9.752;2023-11-21T13:52:07;6.33;;;3.53;;
5539;SDS011;2792;52.452;9.752;2023-11-21T13:54:34;3.27;;;2.97;;
5539;SDS011;2792;52.452;9.752;2023-11-21T13:57:00;3.87;;;3.37;;
5539;SDS011;2792;52.452;9.752;2023-11-21T13:59:29;6.33;;;3.70;;
5539;SDS011;2792;52.452;9.752;2023-11-21T14:01:57;5.03;;;3.10;;
5539;SDS011;2792;52.452;9.752;2023-11-21T14:04:25;3.30;;;3.00;;
5539;SDS011;2792;52.452;9.752;2023-11-21T14:07:11;3.70;;;3.40;;
5539;SDS011;2792;52.452;9.752;2023-11-21T14:09:47;3.40;;;3.07;;
5539;SDS011;2792;52.452;9.752;2023-11-21T14:12:14;3.47;;;3.17;;
5539;SDS011;2792;52.452;9.752;2023-11-21T14:14:42;4.30;;;3.90;;
5539;SDS011;2792;52.452;9.752;2023-11-21T14:17:10;6.93;;;3.40;;
5539;SDS011;2792;52.452;9.752;2023-11-21T14:19:36;5.03;;;3.10;;
5539;SDS011;2792;52.452;9.752;2023-11-21T14:22:06;5.23;;;3.33;;
5539;SDS011;2792;52.452;9.752;2023-11-21T14:24:34;4.83;;;3.57;;
5539;SDS011;2792;52.452;9.752;2023-11-21T14:27:02;5.63;;;3.57;;
5539;SDS011;2792;52.452;9.752;2023-11-21T14:29:30;3.70;;;3.20;;
5539;SDS011;2792;52.452;9.752;2023-11-21T14:32:03;5.40;;;3.83;;
5539;SDS011;2792;52.452;9.752;2023-11-21T14:34:30;4.87;;;3.70;;
5539;SDS011;2792;52.452;9.752;2023-11-21T14:36:57;5.33;;;3.70;;
5539;SDS011;2792;52.452;9.752;2023-11-21T14:39:23;4.97;;;3.70;;
5539;SDS011;2792;52.452;9.752;2023-11-21T14:41:53;4.30;;;3.27;;
5539;SDS011;2792;52.452;9.752;2023-11-21T14:44:21;4.00;;;3.27;;
5539;SDS011;2792;52.452;9.752;2023-11-21T14:46:51;11.97;;;4.60;;
5539;SDS011;2792;52.452;9.752;2023-11-21T14:49:21;4.20;;;3.70;;
5539;SDS011;2792;52.452;9.752;2023-11-21T14:51:49;4.30;;;3.90;;
5539;SDS011;2792;52.452;9.752;2023-11-21T14:54:25;5.50;;;3.97;;
5539;SDS011;2792;52.452;9.752;2023-11-21T14:57:05;4.30;;;3.90;;
5539;SDS011;2792;52.452;9.752;2023-11-21T14:59:34;4.20;;;3.70;;
5539;SDS011;2792;52.452;9.752;2023-11-21T15:02:01;3.93;;;3.47;;
5539;SDS011;2792;52.452;9.752;2023-11-21T15:04:40;9.10;;;5.10;;
5539;SDS011;2792;52.452;9.752;2023-11-21T15:07:08;4.20;;;3.60;;
5539;SDS011;2792;52.452;9.752;2023-11-21T15:09:33;4.63;;;3.57;;